createdAt,value
2022-10-25T00:02:21.295Z,2.03
2022-10-25T00:04:48.019Z,2.00
2022-10-25T00:07:15.141Z,1.98
2022-10-25T00:09:44.108Z,2.00
2022-10-25T00:12:10.780Z,2.10
2022-10-25T00:14:37.909Z,2.53
2022-10-25T00:17:04.705Z,2.45
2022-10-25T00:19:31.296Z,2.08
2022-10-25T00:21:57.923Z,2.92
2022-10-25T00:24:24.677Z,2.38
2022-10-25T00:26:51.423Z,2.13
2022-10-25T00:31:56.453Z,2.35
2022-10-25T00:34:23.201Z,2.15
2022-10-25T00:36:49.943Z,2.42
2022-10-25T00:39:16.546Z,2.10
2022-10-25T00:41:43.175Z,2.72
2022-10-25T00:44:40.911Z,2.17
2022-10-25T00:47:22.696Z,1.85
2022-10-25T00:50:05.949Z,2.40
2022-10-25T00:52:37.062Z,3.20
2022-10-25T00:55:06.481Z,2.28
2022-10-25T00:58:08.579Z,2.28
2022-10-25T01:00:36.503Z,2.60
2022-10-25T01:03:04.400Z,2.40
2022-10-25T01:05:34.777Z,2.58
2022-10-25T01:08:01.660Z,2.10
2022-10-25T01:10:32.104Z,2.50
2022-10-25T01:13:02.098Z,2.30
2022-10-25T01:15:35.502Z,1.92
2022-10-25T01:18:17.794Z,2.97
2022-10-25T01:21:15.768Z,2.95
2022-10-25T01:24:09.647Z,2.50
2022-10-25T01:26:54.735Z,3.28
2022-10-25T01:29:58.830Z,2.40
2022-10-25T01:32:28.544Z,2.25
2022-10-25T01:35:15.221Z,2.30
2022-10-25T01:38:17.513Z,2.53
2022-10-25T01:41:05.061Z,2.38
2022-10-25T01:43:46.922Z,1.98
2022-10-25T01:46:35.335Z,1.92
2022-10-25T01:49:06.032Z,2.20
2022-10-25T01:51:38.990Z,2.42
2022-10-25T01:54:28.063Z,2.08
2022-10-25T01:57:16.748Z,2.78
2022-10-25T02:00:04.084Z,2.17
2022-10-25T02:03:04.797Z,1.95
2022-10-25T02:06:09.727Z,2.20
2022-10-25T02:08:46.884Z,2.25
2022-10-25T02:11:27.241Z,2.20
2022-10-25T02:13:59.652Z,1.98
2022-10-25T02:16:31.510Z,2.00
2022-10-25T02:19:03.471Z,1.95
2022-10-25T02:21:35.571Z,2.20
2022-10-25T02:24:11.990Z,1.40
2022-10-25T02:26:43.537Z,2.25
2022-10-25T02:29:11.835Z,1.95
2022-10-25T02:31:39.072Z,1.88
2022-10-25T02:34:06.516Z,1.90
2022-10-25T02:36:33.216Z,1.85
2022-10-25T02:39:00.287Z,2.22
2022-10-25T02:41:27.179Z,2.28
2022-10-25T02:43:53.823Z,2.10
2022-10-25T02:46:22.223Z,2.17
2022-10-25T02:48:50.014Z,2.50
2022-10-25T02:51:18.190Z,2.17
2022-10-25T02:53:45.133Z,2.00
2022-10-25T02:56:14.691Z,2.22
2022-10-25T02:58:43.782Z,1.85
2022-10-25T03:01:11.573Z,1.90
2022-10-25T03:03:38.795Z,2.30
2022-10-25T03:06:06.238Z,1.90
2022-10-25T03:08:33.849Z,1.63
2022-10-25T03:11:00.860Z,1.67
2022-10-25T03:13:29.954Z,2.35
2022-10-25T03:15:56.683Z,2.08
2022-10-25T03:18:23.437Z,1.83
2022-10-25T03:20:50.858Z,2.00
2022-10-25T03:23:19.082Z,2.03
2022-10-25T03:25:46.624Z,2.00
2022-10-25T03:28:17.885Z,2.35
2022-10-25T03:30:44.520Z,2.00
2022-10-25T03:33:11.144Z,1.70
2022-10-25T03:35:38.038Z,2.53
2022-10-25T03:38:04.821Z,2.15
2022-10-25T03:40:34.143Z,2.00
2022-10-25T03:43:01.210Z,1.98
2022-10-25T03:45:27.839Z,2.20
2022-10-25T03:47:56.672Z,2.33
2022-10-25T03:50:26.104Z,2.45
2022-10-25T03:52:52.852Z,2.28
2022-10-25T03:55:19.484Z,2.22
2022-10-25T03:57:46.431Z,2.25
2022-10-25T04:00:14.020Z,2.10
2022-10-25T04:02:40.678Z,1.88
2022-10-25T04:05:10.070Z,2.00
2022-10-25T04:07:37.077Z,2.25
2022-10-25T04:10:04.634Z,2.17
2022-10-25T04:12:32.269Z,1.90
2022-10-25T04:15:01.908Z,1.90
2022-10-25T04:17:28.612Z,2.03
2022-10-25T04:19:55.436Z,2.20
2022-10-25T04:22:22.198Z,2.28
2022-10-25T04:24:48.971Z,1.80
2022-10-25T04:27:15.584Z,1.80
2022-10-25T04:29:44.781Z,2.10
2022-10-25T04:32:11.911Z,1.80
2022-10-25T04:34:38.633Z,2.03
2022-10-25T04:37:05.294Z,1.75
2022-10-25T04:39:32.111Z,2.15
2022-10-25T04:41:58.975Z,2.30
2022-10-25T04:44:25.679Z,2.10
2022-10-25T04:46:52.415Z,1.80
2022-10-25T04:49:21.825Z,1.85
2022-10-25T04:51:48.512Z,2.20
2022-10-25T04:54:15.266Z,1.98
2022-10-25T04:56:42.046Z,2.00
2022-10-25T04:59:12.586Z,2.40
2022-10-25T05:01:39.361Z,2.03
2022-10-25T05:04:06.030Z,2.30
2022-10-25T05:06:32.817Z,2.42
2022-10-25T05:09:01.782Z,2.60
2022-10-25T05:11:30.961Z,2.30
2022-10-25T05:13:57.638Z,2.33
2022-10-25T05:16:25.747Z,1.70
2022-10-25T05:18:57.167Z,2.40
2022-10-25T05:21:30.839Z,2.47
2022-10-25T05:24:02.110Z,2.42
2022-10-25T05:26:30.326Z,2.10
2022-10-25T05:28:57.496Z,2.13
2022-10-25T05:31:29.394Z,2.58
2022-10-25T05:34:00.675Z,2.38
2022-10-25T05:36:33.011Z,2.15
2022-10-25T05:39:01.132Z,2.38
2022-10-25T05:41:29.656Z,2.45
2022-10-25T05:43:59.907Z,2.30
2022-10-25T05:46:26.606Z,2.58
2022-10-25T05:48:54.039Z,2.00
2022-10-25T05:51:32.852Z,2.13
2022-10-25T05:54:05.731Z,2.20
2022-10-25T05:56:33.816Z,2.17
2022-10-25T05:59:11.538Z,2.17
2022-10-25T06:01:43.939Z,1.95
2022-10-25T06:04:11.666Z,2.92
2022-10-25T06:06:40.083Z,2.67
2022-10-25T06:09:11.426Z,2.60
2022-10-25T06:11:40.716Z,2.63
2022-10-25T06:14:09.552Z,2.67
2022-10-25T06:16:37.466Z,2.60
2022-10-25T06:19:09.883Z,3.00
2022-10-25T06:21:36.966Z,3.80
2022-10-25T06:24:04.612Z,3.40
2022-10-25T06:26:31.782Z,3.50
2022-10-25T06:29:01.437Z,3.78
2022-10-25T06:31:32.757Z,4.60
2022-10-25T06:34:01.629Z,5.10
2022-10-25T06:36:30.788Z,3.97
2022-10-25T06:39:02.163Z,3.10
2022-10-25T06:41:34.098Z,4.15
2022-10-25T06:44:05.397Z,3.70
2022-10-25T06:46:57.854Z,3.97
2022-10-25T06:49:25.542Z,4.15
2022-10-25T06:51:52.223Z,4.75
2022-10-25T06:54:19.122Z,4.03
2022-10-25T06:56:48.398Z,4.95
2022-10-25T06:59:15.054Z,4.80
2022-10-25T07:01:42.276Z,4.35
2022-10-25T07:06:55.142Z,5.38
2022-10-25T07:09:22.555Z,5.10
2022-10-25T07:11:49.192Z,5.38
2022-10-25T07:14:15.833Z,6.13
2022-10-25T07:16:42.442Z,5.82
2022-10-25T07:19:12.387Z,5.25
2022-10-25T07:21:41.274Z,7.63
2022-10-25T07:24:11.795Z,6.15
2022-10-25T07:26:39.016Z,6.88
2022-10-25T07:29:08.190Z,5.85
2022-10-25T07:31:41.548Z,5.85
2022-10-25T07:34:09.733Z,5.72
2022-10-25T07:36:38.597Z,6.40
2022-10-25T07:39:05.748Z,7.28
2022-10-25T07:41:33.353Z,6.35
2022-10-25T07:43:59.993Z,6.82
2022-10-25T07:46:29.058Z,7.00
2022-10-25T07:48:56.669Z,7.50
2022-10-25T07:51:23.422Z,8.25
2022-10-25T07:53:51.099Z,8.93
2022-10-25T07:56:23.475Z,9.35
2022-10-25T07:58:50.507Z,11.25
2022-10-25T08:01:23.596Z,8.73
2022-10-25T08:03:52.389Z,8.70
2022-10-25T08:06:20.141Z,8.45
2022-10-25T08:08:46.808Z,9.82
2022-10-25T08:11:13.673Z,9.35
2022-10-25T08:13:41.084Z,9.88
2022-10-25T08:16:08.196Z,9.50
2022-10-25T08:18:36.324Z,10.13
2022-10-25T08:21:04.526Z,9.38
2022-10-25T08:23:35.215Z,9.05
2022-10-25T08:26:02.692Z,9.05
2022-10-25T08:28:31.459Z,9.07
2022-10-25T08:30:58.521Z,8.38
2022-10-25T08:33:27.881Z,8.85
2022-10-25T08:35:54.702Z,10.43
2022-10-25T08:38:24.255Z,9.88
2022-10-25T08:41:06.921Z,8.60
2022-10-25T08:46:33.561Z,9.60
2022-10-25T08:49:18.432Z,8.05
2022-10-25T08:51:47.819Z,8.82
2022-10-25T08:54:30.977Z,8.18
2022-10-25T08:57:15.542Z,8.43
2022-10-25T08:59:50.716Z,8.75
2022-10-25T09:02:38.256Z,8.80
2022-10-25T09:05:13.689Z,8.27
2022-10-25T09:07:56.522Z,7.97
2022-10-25T09:10:50.614Z,7.47
2022-10-25T09:13:32.555Z,7.60
2022-10-25T09:16:04.888Z,7.70
2022-10-25T09:18:43.464Z,7.60
2022-10-25T09:21:22.837Z,7.63
2022-10-25T09:24:11.868Z,9.77
2022-10-25T09:26:41.161Z,7.63
2022-10-25T09:29:19.613Z,8.48
2022-10-25T09:31:51.154Z,19.67
2022-10-25T09:34:20.462Z,8.20
2022-10-25T09:36:54.311Z,7.78
2022-10-25T09:39:45.167Z,6.25
2022-10-25T09:42:19.973Z,11.73
2022-10-25T09:44:54.995Z,12.80
2022-10-25T09:47:35.594Z,8.93
2022-10-25T09:50:10.669Z,9.02
2022-10-25T09:52:40.309Z,8.93
2022-10-25T09:55:28.839Z,9.13
2022-10-25T09:57:58.182Z,8.52
2022-10-25T10:00:24.962Z,9.25
2022-10-25T10:02:51.986Z,8.80
2022-10-25T10:05:21.966Z,8.45
2022-10-25T10:07:50.759Z,8.27
2022-10-25T10:10:24.763Z,9.57
2022-10-25T10:13:13.014Z,8.88
2022-10-25T10:16:02.252Z,8.90
2022-10-25T10:18:31.960Z,8.55
2022-10-25T10:21:10.827Z,8.40
2022-10-25T10:23:43.218Z,8.35
2022-10-25T10:26:21.983Z,10.52
2022-10-25T10:28:52.205Z,7.43
2022-10-25T10:31:19.837Z,8.48
2022-10-25T10:33:51.793Z,9.23
2022-10-25T10:36:28.736Z,7.90
2022-10-25T10:39:13.824Z,7.63
2022-10-25T10:42:01.109Z,7.63
2022-10-25T10:44:30.281Z,7.32
2022-10-25T10:46:57.273Z,7.15
2022-10-25T10:49:37.489Z,7.38
2022-10-25T10:52:05.239Z,8.30
2022-10-25T10:54:37.512Z,7.65
2022-10-25T10:57:09.062Z,6.32
2022-10-25T10:59:45.983Z,5.88
2022-10-25T11:02:24.043Z,5.25
2022-10-25T11:04:53.245Z,5.13
2022-10-25T11:07:35.420Z,5.38
2022-10-25T11:10:17.471Z,5.88
2022-10-25T11:12:44.491Z,5.47
2022-10-25T11:15:12.965Z,4.97
2022-10-25T11:18:04.379Z,5.45
2022-10-25T11:20:53.477Z,5.72
2022-10-25T11:23:39.046Z,5.80
2022-10-25T11:26:18.408Z,5.20
2022-10-25T11:28:47.871Z,5.28
2022-10-25T11:31:35.131Z,5.30
2022-10-25T11:34:15.217Z,6.55
2022-10-25T11:37:06.815Z,6.10
2022-10-25T11:39:51.383Z,4.95
2022-10-25T11:42:59.555Z,5.72
2022-10-25T11:45:35.933Z,5.25
2022-10-25T11:48:09.504Z,4.95
2022-10-25T11:51:01.267Z,5.07
2022-10-25T11:53:31.066Z,4.35
2022-10-25T11:56:11.608Z,4.93
2022-10-25T11:58:50.418Z,3.78
2022-10-25T12:01:35.416Z,4.30
2022-10-25T12:04:39.372Z,3.40
2022-10-25T12:07:17.830Z,3.85
2022-10-25T12:10:15.831Z,3.95
2022-10-25T12:13:12.236Z,4.32
2022-10-25T12:15:41.865Z,3.90
2022-10-25T12:18:15.913Z,4.35
2022-10-25T12:20:46.435Z,4.70
2022-10-25T12:23:18.179Z,3.90
2022-10-25T12:25:54.821Z,4.07
2022-10-25T12:28:51.671Z,4.68
2022-10-25T12:31:26.963Z,4.95
2022-10-25T12:34:32.165Z,4.70
2022-10-25T12:37:06.239Z,4.03
2022-10-25T12:39:41.385Z,4.05
2022-10-25T12:42:23.655Z,3.88
2022-10-25T12:44:50.182Z,3.42
2022-10-25T12:47:35.550Z,3.13
2022-10-25T12:50:53.029Z,3.97
2022-10-25T12:53:34.465Z,3.85
2022-10-25T12:56:02.862Z,4.05
2022-10-25T12:58:47.976Z,4.22
2022-10-25T13:01:39.060Z,3.78
2022-10-25T13:04:06.061Z,4.20
2022-10-25T13:06:40.576Z,3.53
2022-10-25T13:09:13.962Z,3.28
2022-10-25T13:11:47.023Z,3.40
2022-10-25T13:14:21.273Z,3.45
2022-10-25T13:16:48.220Z,3.58
2022-10-25T13:19:30.625Z,2.78
2022-10-25T13:22:35.614Z,3.00
2022-10-25T13:25:13.487Z,2.80
2022-10-25T13:28:00.997Z,2.70
2022-10-25T13:30:32.053Z,2.25
2022-10-25T13:33:24.356Z,2.60
2022-10-25T13:35:51.237Z,2.60
2022-10-25T13:38:23.345Z,1.40
2022-10-25T13:41:08.483Z,1.80
2022-10-25T13:43:36.199Z,1.67
2022-10-25T13:46:03.324Z,2.10
2022-10-25T13:48:33.492Z,1.80
2022-10-25T13:51:14.227Z,1.85
2022-10-25T13:53:49.783Z,1.67
2022-10-25T13:56:47.784Z,1.50
2022-10-25T13:59:57.318Z,1.60
2022-10-25T14:02:24.064Z,1.90
2022-10-25T14:04:51.177Z,1.60
2022-10-25T14:07:47.342Z,1.52
2022-10-25T14:10:33.125Z,1.58
2022-10-25T14:13:07.439Z,1.27
2022-10-25T14:15:41.371Z,1.35
2022-10-25T14:18:17.609Z,1.30
2022-10-25T14:20:50.630Z,1.17
2022-10-25T14:23:27.336Z,1.65
2022-10-25T14:26:00.314Z,1.20
2022-10-25T14:28:35.191Z,1.67
2022-10-25T14:31:04.380Z,1.25
2022-10-25T14:33:39.428Z,1.52
2022-10-25T14:36:22.190Z,1.33
2022-10-25T14:38:50.247Z,2.53
2022-10-25T14:41:28.099Z,1.65
2022-10-25T14:43:55.197Z,1.40
2022-10-25T14:46:24.877Z,1.20
2022-10-25T14:48:57.983Z,1.10
2022-10-25T14:51:45.726Z,2.05
2022-10-25T14:54:12.366Z,1.20
2022-10-25T14:56:49.139Z,1.20
2022-10-25T14:59:26.627Z,1.10
2022-10-25T15:01:58.338Z,1.10
2022-10-25T15:04:28.203Z,1.23
2022-10-25T15:06:57.627Z,2.22
2022-10-25T15:09:43.315Z,1.70
2022-10-25T15:12:13.160Z,1.40
2022-10-25T15:14:39.867Z,1.83
2022-10-25T15:17:17.022Z,1.70
2022-10-25T15:20:03.998Z,1.30
2022-10-25T15:22:30.579Z,1.70
2022-10-25T15:24:59.467Z,1.63
2022-10-25T15:27:26.370Z,1.90
2022-10-25T15:29:53.112Z,1.48
2022-10-25T15:32:23.216Z,1.50
2022-10-25T15:34:53.503Z,1.92
2022-10-25T15:37:23.003Z,1.40
2022-10-25T15:39:52.087Z,1.27
2022-10-25T15:42:19.658Z,1.10
2022-10-25T15:44:46.399Z,1.30
2022-10-25T15:47:24.979Z,1.40
2022-10-25T15:49:53.355Z,1.10
2022-10-25T15:52:20.037Z,1.40
2022-10-25T15:54:47.843Z,0.98
2022-10-25T15:57:16.986Z,1.30
2022-10-25T15:59:44.736Z,1.40
2022-10-25T16:02:30.563Z,1.40
2022-10-25T16:04:57.341Z,1.30
2022-10-25T16:07:24.418Z,1.67
2022-10-25T16:09:51.976Z,1.05
2022-10-25T16:12:22.547Z,1.27
2022-10-25T16:14:53.170Z,1.42
2022-10-25T16:17:19.930Z,1.50
2022-10-25T16:19:48.919Z,1.20
2022-10-25T16:22:15.744Z,1.40
2022-10-25T16:24:42.603Z,1.50
2022-10-25T16:27:12.494Z,1.30
2022-10-25T16:29:39.744Z,1.77
2022-10-25T16:32:06.769Z,1.50
2022-10-25T16:34:33.652Z,1.75
2022-10-25T16:37:03.429Z,1.65
2022-10-25T16:39:32.192Z,1.50
2022-10-25T16:41:59.293Z,1.50
2022-10-25T16:44:28.111Z,1.52
2022-10-25T16:46:54.892Z,1.83
2022-10-25T16:49:21.597Z,1.63
2022-10-25T16:51:50.312Z,1.85
2022-10-25T16:54:18.782Z,1.17
2022-10-25T16:56:48.623Z,2.00
2022-10-25T16:59:15.461Z,2.38
2022-10-25T17:01:45.143Z,2.97
2022-10-25T17:04:18.187Z,4.10
2022-10-25T17:06:47.067Z,3.58
2022-10-25T17:09:13.728Z,4.10
2022-10-25T17:11:41.112Z,3.35
2022-10-25T17:14:09.893Z,3.25
2022-10-25T17:16:39.255Z,2.40
2022-10-25T17:19:05.968Z,2.58
2022-10-25T17:21:35.403Z,2.53
2022-10-25T17:24:03.696Z,2.00
2022-10-25T17:26:30.599Z,2.53
2022-10-25T17:29:01.045Z,2.30
2022-10-25T17:31:28.503Z,2.58
2022-10-25T17:33:56.890Z,2.53
2022-10-25T17:36:23.484Z,2.63
2022-10-25T17:38:50.764Z,2.40
2022-10-25T17:41:19.811Z,2.30
2022-10-25T17:43:46.435Z,2.72
2022-10-25T17:46:25.598Z,2.58
2022-10-25T17:48:58.789Z,3.00
2022-10-25T17:51:28.026Z,2.00
2022-10-25T17:53:57.512Z,2.10
2022-10-25T17:56:26.206Z,2.10
2022-10-25T17:58:53.916Z,2.20
2022-10-25T18:01:23.832Z,2.33
2022-10-25T18:03:52.931Z,2.55
2022-10-25T18:08:54.506Z,2.45
2022-10-25T18:11:23.433Z,3.75
2022-10-25T18:13:56.325Z,4.38
2022-10-25T18:16:26.265Z,5.88
2022-10-25T18:18:59.737Z,6.80
2022-10-25T18:21:29.385Z,6.65
2022-10-25T18:24:01.732Z,8.27
2022-10-25T18:26:29.537Z,7.18
2022-10-25T18:28:58.057Z,6.25
2022-10-25T18:31:27.089Z,4.88
2022-10-25T18:33:59.332Z,3.38
2022-10-25T18:36:27.570Z,2.95
2022-10-25T18:38:57.016Z,3.35
2022-10-25T18:41:26.510Z,2.85
2022-10-25T18:43:56.719Z,3.13
2022-10-25T18:46:24.557Z,3.30
2022-10-25T18:48:54.709Z,2.53
2022-10-25T18:51:23.418Z,2.90
2022-10-25T18:53:55.011Z,2.70
2022-10-25T18:56:22.466Z,2.72
2022-10-25T18:58:49.681Z,3.22
2022-10-25T19:01:20.941Z,2.80
2022-10-25T19:03:47.960Z,2.95
2022-10-25T19:06:14.532Z,2.80
2022-10-25T19:08:41.211Z,3.05
2022-10-25T19:11:10.614Z,3.20
2022-10-25T19:13:37.889Z,2.85
2022-10-25T19:16:08.455Z,2.85
2022-10-25T19:18:36.633Z,2.72
2022-10-25T19:21:12.150Z,2.85
2022-10-25T19:23:41.680Z,2.50
2022-10-25T19:26:10.784Z,2.90
2022-10-25T19:28:39.793Z,2.60
2022-10-25T19:31:12.570Z,2.80
2022-10-25T19:33:44.308Z,3.65
2022-10-25T19:36:11.894Z,2.90
2022-10-25T19:38:39.258Z,3.30
2022-10-25T19:41:09.671Z,3.67
2022-10-25T19:43:36.954Z,3.42
2022-10-25T19:46:05.910Z,3.70
2022-10-25T19:48:33.210Z,3.00
2022-10-25T19:51:09.394Z,3.38
2022-10-25T19:53:36.738Z,3.20
2022-10-25T19:56:12.528Z,3.08
2022-10-25T19:58:39.843Z,2.83
2022-10-25T20:01:19.509Z,2.80
2022-10-25T20:03:50.011Z,2.97
2022-10-25T20:06:23.525Z,3.47
2022-10-25T20:08:52.684Z,2.83
2022-10-25T20:11:20.495Z,2.83
2022-10-25T20:13:47.228Z,2.65
2022-10-25T20:16:17.585Z,2.78
2022-10-25T20:18:44.249Z,2.92
2022-10-25T20:21:35.211Z,2.83
2022-10-25T20:24:06.767Z,3.05
2022-10-25T20:26:36.601Z,3.78
2022-10-25T20:29:06.927Z,3.33
2022-10-25T20:31:34.885Z,3.20
2022-10-25T20:34:04.366Z,2.80
2022-10-25T20:36:33.323Z,3.15
2022-10-25T20:39:00.123Z,2.90
2022-10-25T20:41:30.426Z,3.10
2022-10-25T20:44:00.055Z,3.00
2022-10-25T20:46:28.587Z,2.83
2022-10-25T20:48:59.104Z,3.53
2022-10-25T20:51:26.675Z,3.10
2022-10-25T20:53:57.069Z,3.13
2022-10-25T20:56:24.313Z,3.58
2022-10-25T20:58:50.924Z,3.10
2022-10-25T21:01:19.894Z,3.40
2022-10-25T21:03:48.998Z,3.58
2022-10-25T21:06:15.850Z,3.58
2022-10-25T21:08:42.628Z,3.40
2022-10-25T21:11:12.302Z,3.72
2022-10-25T21:13:39.505Z,3.35
2022-10-25T21:16:06.825Z,4.10
2022-10-25T21:18:34.378Z,3.83
2022-10-25T21:21:03.564Z,4.28
2022-10-25T21:23:31.241Z,4.03
2022-10-25T21:25:59.843Z,4.28
2022-10-25T21:28:27.150Z,4.80
2022-10-25T21:30:54.432Z,4.18
2022-10-25T21:33:21.279Z,4.82
2022-10-25T21:35:50.136Z,4.20
2022-10-25T21:38:16.699Z,4.38
2022-10-25T21:40:43.287Z,4.30
2022-10-25T21:43:09.970Z,4.22
2022-10-25T21:45:41.401Z,4.50
2022-10-25T21:48:08.272Z,4.00
2022-10-25T21:50:34.845Z,4.10
2022-10-25T21:53:01.580Z,4.45
2022-10-25T21:55:28.189Z,3.70
2022-10-25T21:57:56.863Z,4.57
2022-10-25T22:00:26.032Z,4.60
2022-10-25T22:02:52.704Z,4.38
2022-10-25T22:05:19.320Z,4.35
2022-10-25T22:07:51.174Z,4.43
2022-10-25T22:10:18.167Z,4.95
2022-10-25T22:12:45.177Z,5.40
2022-10-25T22:15:11.977Z,4.45
2022-10-25T22:17:38.856Z,5.15
2022-10-25T22:20:06.100Z,4.90
2022-10-25T22:22:32.719Z,5.00
2022-10-25T22:25:01.799Z,5.13
2022-10-25T22:27:28.371Z,5.43
2022-10-25T22:29:54.998Z,5.15
2022-10-25T22:32:21.609Z,4.93
2022-10-25T22:34:48.328Z,5.22
2022-10-25T22:37:17.282Z,5.05
2022-10-25T22:39:44.085Z,5.05
2022-10-25T22:42:13.667Z,5.28
2022-10-25T22:44:40.292Z,5.03
2022-10-25T22:47:06.941Z,5.38
2022-10-25T22:49:33.923Z,5.43
2022-10-25T22:52:00.550Z,4.97
2022-10-25T22:54:27.283Z,5.45
2022-10-25T22:56:54.002Z,5.32
2022-10-25T22:59:20.776Z,5.03
2022-10-25T23:01:47.444Z,4.93
2022-10-25T23:04:14.173Z,5.22
2022-10-25T23:06:40.958Z,4.95
2022-10-25T23:09:10.264Z,5.47
2022-10-25T23:11:38.616Z,4.93
2022-10-25T23:14:14.699Z,5.05
2022-10-25T23:16:44.118Z,5.47
2022-10-25T23:19:10.680Z,5.43
2022-10-25T23:21:37.245Z,5.03
2022-10-25T23:24:04.134Z,4.60
2022-10-25T23:26:36.734Z,4.68
2022-10-25T23:29:04.661Z,5.07
2022-10-25T23:31:31.904Z,4.78
2022-10-25T23:34:00.403Z,5.25
2022-10-25T23:36:37.912Z,5.18
2022-10-25T23:39:09.483Z,5.22
2022-10-25T23:41:36.809Z,5.20
2022-10-25T23:44:03.566Z,5.50
2022-10-25T23:46:30.237Z,4.60
2022-10-25T23:48:57.862Z,4.75
2022-10-25T23:51:24.443Z,5.68
2022-10-25T23:53:51.584Z,5.20
2022-10-25T23:56:18.222Z,5.47
2022-10-25T23:58:44.866Z,5.18
